Terminal Aerodrome Forecast
Issued by NWS

Home | Current Version | Previous Version | Text Only | Print | Product List | Glossary Off
Versions: 1 2 3 4 5 6 7 8 9 10 11 12 13 14 15 16 17 18 19 20

000
FTUS43 KDVN 021700
TAFBRL
TAF
KBRL 021735Z 0218/0318 27005KT P6SM SCT035
     FM030000 VRB03KT P6SM SKC
      TEMPO 0308/0312 4SM BR
     FM031400 17007KT P6SM FEW250=

USA.gov is the U.S. government's official web portal to all federal, state and local government web resources and services.